createdAt,value
2017-11-12T00:00:35.304Z,99670.84
2017-11-12T00:01:41.296Z,99666.06
2017-11-12T00:02:47.417Z,99661.20
2017-11-12T00:03:53.536Z,99660.38
2017-11-12T00:04:59.373Z,99660.77
2017-11-12T00:06:05.456Z,99661.66
2017-11-12T00:07:20.613Z,99657.57
2017-11-12T00:08:26.663Z,99659.36
2017-11-12T00:09:32.716Z,99653.31
2017-11-12T00:10:38.802Z,99653.36
2017-11-12T00:11:44.934Z,99663.57
2017-11-12T00:12:51.035Z,99656.03
2017-11-12T00:13:57.145Z,99649.47
2017-11-12T00:15:03.192Z,99653.34
2017-11-12T00:16:09.288Z,99654.81
2017-11-12T00:17:15.444Z,99660.13
2017-11-12T00:18:21.574Z,99652.44
2017-11-12T00:19:27.610Z,99657.13
2017-11-12T00:20:33.705Z,99654.92
2017-11-12T00:21:39.805Z,99655.06
2017-11-12T00:22:47.156Z,99660.04
2017-11-12T00:23:53.263Z,99659.30
2017-11-12T00:25:03.973Z,99657.97
2017-11-12T00:26:13.070Z,99662.83
2017-11-12T00:27:19.147Z,99664.90
2017-11-12T00:28:25.233Z,99660.45
2017-11-12T00:29:30.927Z,99664.82
2017-11-12T00:30:37.085Z,99653.19
2017-11-12T00:31:50.799Z,99655.38
2017-11-12T00:32:56.863Z,99663.38
2017-11-12T00:34:08.690Z,99661.58
2017-11-12T00:35:14.762Z,99659.22
2017-11-12T00:36:20.729Z,99659.19
2017-11-12T00:37:26.698Z,99654.92
2017-11-12T00:38:32.760Z,99664.37
2017-11-12T00:39:41.009Z,99657.22
2017-11-12T00:40:47.096Z,99660.14
2017-11-12T00:41:53.009Z,99657.38
2017-11-12T00:42:59.060Z,99663.20
2017-11-12T00:44:05.130Z,99666.78
2017-11-12T00:45:11.223Z,99666.17
2017-11-12T00:46:17.301Z,99662.97
2017-11-12T00:47:24.245Z,99667.02
2017-11-12T00:48:30.296Z,99670.63
2017-11-12T00:49:36.383Z,99668.12
2017-11-12T00:50:42.469Z,99660.27
2017-11-12T00:51:48.584Z,99662.24
2017-11-12T00:52:54.653Z,99661.33
2017-11-12T00:54:01.639Z,99667.52
2017-11-12T00:55:07.719Z,99668.31
2017-11-12T00:56:13.802Z,99669.48
2017-11-12T00:57:19.939Z,99666.91
2017-11-12T00:58:26.094Z,99667.11
2017-11-12T00:59:32.165Z,99666.72
2017-11-12T01:00:38.259Z,99666.44
2017-11-12T01:01:44.367Z,99668.51
2017-11-12T01:02:50.457Z,99666.27
2017-11-12T01:03:57.470Z,99664.59
2017-11-12T01:05:03.553Z,99665.92
2017-11-12T01:06:09.663Z,99663.13
2017-11-12T01:07:15.785Z,99666.99
2017-11-12T01:08:21.827Z,99661.37
2017-11-12T01:09:27.933Z,99666.72
2017-11-12T01:10:33.996Z,99661.23
2017-11-12T01:11:40.116Z,99664.82
2017-11-12T01:12:45.908Z,99663.55
2017-11-12T01:13:52.047Z,99663.98
2017-11-12T01:14:58.160Z,99660.30
2017-11-12T01:16:05.108Z,99649.67
2017-11-12T01:17:11.223Z,99652.90
2017-11-12T01:18:17.328Z,99647.59
2017-11-12T01:19:23.426Z,99647.58
2017-11-12T01:20:29.537Z,99645.78
2017-11-12T01:21:35.651Z,99652.23
2017-11-12T01:22:41.561Z,99642.09
2017-11-12T01:23:47.631Z,99645.88
2017-11-12T01:24:53.712Z,99643.78
2017-11-12T01:25:59.788Z,99642.22
2017-11-12T01:27:05.904Z,99642.63
2017-11-12T01:28:11.996Z,99640.37
2017-11-12T01:29:18.092Z,99638.40
2017-11-12T01:30:24.191Z,99638.08
2017-11-12T01:31:30.307Z,99634.31
2017-11-12T01:32:36.406Z,99641.23
2017-11-12T01:33:42.538Z,99639.82
2017-11-12T01:34:48.651Z,99636.75
2017-11-12T01:35:54.749Z,99630.83
2017-11-12T01:37:00.449Z,99636.03
2017-11-12T01:38:07.360Z,99633.13
2017-11-12T01:39:13.433Z,99638.05
2017-11-12T01:40:19.519Z,99636.45
2017-11-12T01:41:25.615Z,99636.80
2017-11-12T01:42:31.729Z,99636.46
2017-11-12T01:43:38.731Z,99632.65
2017-11-12T01:44:45.740Z,99637.28
2017-11-12T01:45:51.615Z,99634.06
2017-11-12T01:46:57.683Z,99635.45
2017-11-12T01:48:03.774Z,99633.00
2017-11-12T01:49:09.944Z,99639.92
2017-11-12T01:50:16.014Z,99641.48
2017-11-12T01:51:22.070Z,99635.17
2017-11-12T01:52:28.158Z,99634.22
2017-11-12T01:53:34.256Z,99634.92
2017-11-12T01:54:40.403Z,99637.06
2017-11-12T01:55:46.487Z,99635.98
2017-11-12T01:56:52.567Z,99634.21
2017-11-12T01:57:59.567Z,99635.06
2017-11-12T01:59:05.303Z,99632.16
2017-11-12T02:00:10.482Z,99637.06
2017-11-12T02:01:16.359Z,99637.84
2017-11-12T02:02:21.549Z,99640.55
2017-11-12T02:03:27.087Z,99634.94
2017-11-12T02:04:33.145Z,99640.44
2017-11-12T02:05:38.752Z,99632.58
2017-11-12T02:06:44.842Z,99639.33
2017-11-12T02:09:02.975Z,99635.80
2017-11-12T02:10:09.127Z,99635.92
2017-11-12T02:11:15.193Z,99635.11
2017-11-12T02:12:21.290Z,99635.66
2017-11-12T02:13:27.014Z,99634.80
2017-11-12T02:14:33.116Z,99638.91
2017-11-12T02:15:39.209Z,99627.47
2017-11-12T02:16:45.285Z,99638.36
2017-11-12T02:17:51.191Z,99642.92
2017-11-12T02:18:57.051Z,99639.55
2017-11-12T02:20:02.461Z,99639.64
2017-11-12T02:21:07.978Z,99638.36
2017-11-12T02:22:13.437Z,99637.99
2017-11-12T02:23:18.847Z,99638.64
2017-11-12T02:24:24.724Z,99639.81
2017-11-12T02:25:31.920Z,99637.14
2017-11-12T02:26:37.281Z,99641.09
2017-11-12T02:27:43.056Z,99639.50
2017-11-12T02:28:48.502Z,99636.09
2017-11-12T02:29:53.687Z,99638.55
2017-11-12T02:30:59.032Z,99631.91
2017-11-12T02:32:04.551Z,99637.03
2017-11-12T02:33:09.916Z,99635.75
2017-11-12T02:34:15.092Z,99637.58
2017-11-12T02:35:20.836Z,99631.16
2017-11-12T02:36:26.565Z,99636.95
2017-11-12T02:37:31.992Z,99635.53
2017-11-12T02:38:37.591Z,99632.33
2017-11-12T02:39:43.300Z,99638.77
2017-11-12T02:40:48.996Z,99636.63
2017-11-12T02:41:54.741Z,99630.74
2017-11-12T02:43:00.266Z,99636.50
2017-11-12T02:44:06.000Z,99635.03
2017-11-12T02:45:11.357Z,99633.48
2017-11-12T02:46:17.102Z,99631.66
2017-11-12T02:47:22.487Z,99636.69
2017-11-12T02:48:27.884Z,99634.61
2017-11-12T02:49:37.705Z,99636.86
2017-11-12T02:50:43.424Z,99633.80
2017-11-12T02:51:48.759Z,99632.02
2017-11-12T02:52:54.166Z,99636.81
2017-11-12T02:53:59.567Z,99633.16
2017-11-12T02:55:15.084Z,99636.38
2017-11-12T02:56:21.276Z,99643.84
2017-11-12T02:57:27.389Z,99643.06
2017-11-12T02:58:32.945Z,99640.77
2017-11-12T02:59:41.099Z,99642.45
2017-11-12T03:00:47.194Z,99641.86
2017-11-12T03:01:52.934Z,99641.73
2017-11-12T03:02:58.866Z,99637.84
2017-11-12T03:04:04.971Z,99638.15
2017-11-12T03:05:11.944Z,99642.92
2017-11-12T03:06:18.756Z,99648.48
2017-11-12T03:07:24.623Z,99649.16
2017-11-12T03:08:30.647Z,99645.19
2017-11-12T03:09:37.718Z,99640.44
2017-11-12T03:10:43.799Z,99646.69
2017-11-12T03:11:49.865Z,99643.70
2017-11-12T03:12:56.449Z,99652.11
2017-11-12T03:14:02.546Z,99651.67
2017-11-12T03:15:08.201Z,99650.47
2017-11-12T03:16:14.278Z,99649.97
2017-11-12T03:17:19.997Z,99646.08
2017-11-12T03:18:26.100Z,99650.81
2017-11-12T03:19:32.180Z,99654.88
2017-11-12T03:20:37.901Z,99650.33
2017-11-12T03:21:43.990Z,99650.73
2017-11-12T03:22:50.060Z,99649.80
2017-11-12T03:23:55.803Z,99650.04
2017-11-12T03:25:01.545Z,99655.41
2017-11-12T03:26:06.892Z,99656.70
2017-11-12T03:27:12.280Z,99651.42
2017-11-12T03:28:17.445Z,99644.71
2017-11-12T03:29:23.652Z,99642.13
2017-11-12T03:30:29.357Z,99644.70
2017-11-12T03:31:35.433Z,99646.08
2017-11-12T03:32:41.532Z,99652.13
2017-11-12T03:33:47.398Z,99647.09
2017-11-12T03:34:53.492Z,99651.62
2017-11-12T03:35:59.583Z,99647.34
2017-11-12T03:37:05.654Z,99650.64
2017-11-12T03:38:12.014Z,99648.84
2017-11-12T03:39:18.108Z,99650.63
2017-11-12T03:40:24.215Z,99650.63
2017-11-12T03:41:30.296Z,99650.77
2017-11-12T03:42:36.387Z,99646.30
2017-11-12T03:43:42.459Z,99647.50
2017-11-12T03:44:48.200Z,99650.86
2017-11-12T03:45:54.329Z,99651.54
2017-11-12T03:47:00.078Z,99650.69
2017-11-12T03:48:06.168Z,99644.34
2017-11-12T03:49:11.893Z,99645.34
2017-11-12T03:50:17.299Z,99647.92
2017-11-12T03:51:22.737Z,99647.55
2017-11-12T03:52:28.575Z,99646.47
2017-11-12T03:53:34.634Z,99643.69
2017-11-12T03:54:40.334Z,99646.19
2017-11-12T03:55:45.832Z,99638.49
2017-11-12T03:56:51.550Z,99646.72
2017-11-12T03:57:57.644Z,99641.97
2017-11-12T03:59:03.761Z,99640.75
2017-11-12T04:00:08.945Z,99641.67
2017-11-12T04:01:14.794Z,99636.45
2017-11-12T04:02:20.871Z,99629.95
2017-11-12T04:03:26.575Z,99630.04
2017-11-12T04:04:32.678Z,99631.75
2017-11-12T04:05:38.870Z,99627.31
2017-11-12T04:06:44.378Z,99633.43
2017-11-12T04:07:50.137Z,99634.72
2017-11-12T04:08:56.220Z,99630.84
2017-11-12T04:10:02.350Z,99630.82
2017-11-12T04:11:08.454Z,99637.30
2017-11-12T04:12:14.482Z,99629.67
2017-11-12T04:13:20.525Z,99629.61
2017-11-12T04:14:26.591Z,99634.34
2017-11-12T04:15:32.681Z,99634.41
2017-11-12T04:16:38.765Z,99633.51
2017-11-12T04:17:44.816Z,99631.47
2017-11-12T04:18:50.540Z,99633.47
2017-11-12T04:19:56.455Z,99629.89
2017-11-12T04:21:02.523Z,99626.84
2017-11-12T04:22:08.048Z,99627.78
2017-11-12T04:23:15.011Z,99626.95
2017-11-12T04:24:21.047Z,99621.34
2017-11-12T04:25:27.138Z,99619.59
2017-11-12T04:26:37.618Z,99618.23
2017-11-12T04:27:43.496Z,99617.38
2017-11-12T04:28:49.572Z,99619.94
2017-11-12T04:29:55.674Z,99615.05
2017-11-12T04:31:01.749Z,99610.36
2017-11-12T04:32:07.809Z,99605.05
2017-11-12T04:33:13.873Z,99612.52
2017-11-12T04:34:19.919Z,99621.10
2017-11-12T04:35:26.094Z,99618.08
2017-11-12T04:36:33.053Z,99613.76
2017-11-12T04:37:40.021Z,99611.69
2017-11-12T04:38:46.093Z,99618.01
2017-11-12T04:39:52.202Z,99611.59
2017-11-12T04:40:58.326Z,99611.08
2017-11-12T04:42:04.396Z,99608.08
2017-11-12T04:43:10.489Z,99604.14
2017-11-12T04:44:16.529Z,99608.88
2017-11-12T04:45:22.652Z,99613.19
2017-11-12T04:46:28.738Z,99605.28
2017-11-12T04:47:37.170Z,99601.73
2017-11-12T04:48:43.260Z,99603.25
2017-11-12T04:49:49.381Z,99601.99
2017-11-12T04:50:55.452Z,99603.08
2017-11-12T04:52:03.466Z,99602.81
2017-11-12T04:53:10.424Z,99602.97
2017-11-12T04:54:16.500Z,99603.39
2017-11-12T04:55:22.649Z,99610.72
2017-11-12T04:56:28.845Z,99605.58
2017-11-12T04:57:34.625Z,99607.80
2017-11-12T04:58:40.671Z,99604.08
2017-11-12T04:59:46.761Z,99615.75
2017-11-12T05:00:57.649Z,99607.96
2017-11-12T05:02:03.770Z,99613.52
2017-11-12T05:03:10.369Z,99604.19
2017-11-12T05:04:16.444Z,99601.15
2017-11-12T05:05:21.876Z,99603.75
2017-11-12T05:06:27.954Z,99595.98
2017-11-12T05:07:34.137Z,99593.97
2017-11-12T05:08:40.189Z,99592.19
2017-11-12T05:09:46.329Z,99594.25
2017-11-12T05:10:52.462Z,99588.60
2017-11-12T05:11:59.435Z,99586.83
2017-11-12T05:13:05.493Z,99582.94
2017-11-12T05:14:12.502Z,99579.73
2017-11-12T05:15:18.596Z,99582.41
2017-11-12T05:16:25.608Z,99582.33
2017-11-12T05:17:31.709Z,99581.95
2017-11-12T05:18:37.787Z,99580.75
2017-11-12T05:19:43.853Z,99582.66
2017-11-12T05:20:49.994Z,99579.02
2017-11-12T05:21:56.096Z,99581.87
2017-11-12T05:23:02.169Z,99576.66
2017-11-12T05:24:09.175Z,99581.44
2017-11-12T05:25:15.259Z,99578.86
2017-11-12T05:26:21.373Z,99574.27
2017-11-12T05:27:27.455Z,99581.83
2017-11-12T05:28:33.513Z,99585.86
2017-11-12T05:30:52.263Z,99579.06
2017-11-12T05:31:58.311Z,99583.20
2017-11-12T05:33:13.248Z,99580.03
2017-11-12T05:34:19.354Z,99587.43
2017-11-12T05:35:25.469Z,99590.70
2017-11-12T05:36:31.526Z,99585.38
2017-11-12T05:37:37.575Z,99585.81
2017-11-12T05:38:43.620Z,99586.28
2017-11-12T05:39:49.683Z,99585.30
2017-11-12T05:40:55.799Z,99585.70
2017-11-12T05:42:01.879Z,99588.67
2017-11-12T05:43:07.934Z,99580.95
2017-11-12T05:44:14.014Z,99579.08
2017-11-12T05:45:20.090Z,99580.94
2017-11-12T05:46:26.196Z,99572.65
2017-11-12T05:47:32.795Z,99575.56
2017-11-12T05:48:39.722Z,99571.19
2017-11-12T05:49:45.819Z,99572.83
2017-11-12T05:50:51.895Z,99578.00
2017-11-12T05:51:57.951Z,99576.95
2017-11-12T05:53:04.007Z,99569.63
2017-11-12T05:54:10.106Z,99570.95
2017-11-12T05:55:16.184Z,99572.16
2017-11-12T05:56:22.271Z,99567.48
2017-11-12T05:57:28.359Z,99569.98
2017-11-12T05:58:34.314Z,99566.52
2017-11-12T05:59:40.413Z,99572.41
2017-11-12T06:00:46.515Z,99568.49
2017-11-12T06:01:52.571Z,99563.73
2017-11-12T06:02:59.496Z,99562.80
2017-11-12T06:04:05.375Z,99573.18
2017-11-12T06:05:11.459Z,99567.50
2017-11-12T06:06:17.358Z,99561.92
2017-11-12T06:07:28.174Z,99561.94
2017-11-12T06:08:34.299Z,99564.17
2017-11-12T06:09:41.206Z,99559.95
2017-11-12T06:10:47.303Z,99563.42
2017-11-12T06:11:53.420Z,99561.60
2017-11-12T06:12:59.506Z,99555.05
2017-11-12T06:14:05.406Z,99559.53
2017-11-12T06:15:10.578Z,99556.35
2017-11-12T06:16:16.623Z,99552.44
2017-11-12T06:17:22.367Z,99553.25
2017-11-12T06:18:27.882Z,99556.67
2017-11-12T06:19:33.792Z,99556.84
2017-11-12T06:20:39.684Z,99552.73
2017-11-12T06:21:47.061Z,99553.08
2017-11-12T06:22:55.771Z,99550.05
2017-11-12T06:24:02.110Z,99555.19
2017-11-12T06:25:08.210Z,99556.52
2017-11-12T06:26:14.118Z,99550.05
2017-11-12T06:27:20.099Z,99549.50
2017-11-12T06:28:26.005Z,99558.06
2017-11-12T06:29:31.868Z,99552.81
2017-11-12T06:30:37.961Z,99553.23
2017-11-12T06:31:44.065Z,99544.42
2017-11-12T06:32:49.276Z,99538.60
2017-11-12T06:33:55.353Z,99538.97
2017-11-12T06:35:01.407Z,99541.23
2017-11-12T06:36:07.493Z,99542.84
2017-11-12T06:37:13.625Z,99545.77
2017-11-12T06:38:19.695Z,99540.58
2017-11-12T06:39:25.863Z,99544.84
2017-11-12T06:40:31.978Z,99544.74
2017-11-12T06:41:38.110Z,99540.84
2017-11-12T06:42:44.235Z,99545.95
2017-11-12T06:43:50.322Z,99546.70
2017-11-12T06:44:56.409Z,99540.80
2017-11-12T06:46:13.688Z,99544.19
2017-11-12T06:47:19.784Z,99548.16
2017-11-12T06:48:25.908Z,99539.86
2017-11-12T06:49:31.988Z,99542.45
2017-11-12T06:50:38.103Z,99539.44
2017-11-12T06:51:44.932Z,99539.51
2017-11-12T06:52:52.140Z,99538.46
2017-11-12T06:53:58.957Z,99537.93
2017-11-12T06:55:05.822Z,99533.28
2017-11-12T06:56:14.004Z,99530.56
2017-11-12T06:57:21.820Z,99524.06
2017-11-12T06:58:28.141Z,99528.34
2017-11-12T06:59:34.255Z,99525.56
2017-11-12T07:00:41.022Z,99519.98
2017-11-12T07:01:49.038Z,99518.80
2017-11-12T07:02:56.430Z,99517.45
2017-11-12T07:04:03.315Z,99515.27
2017-11-12T07:05:09.431Z,99511.44
2017-11-12T07:06:15.493Z,99506.17
2017-11-12T07:07:21.627Z,99504.42
2017-11-12T07:08:27.694Z,99499.96
2017-11-12T07:09:33.755Z,99502.60
2017-11-12T07:10:39.887Z,99496.16
2017-11-12T07:11:46.010Z,99499.90
2017-11-12T07:12:51.758Z,99501.81
2017-11-12T07:13:57.831Z,99499.72
2017-11-12T07:15:03.563Z,99496.77
2017-11-12T07:16:11.866Z,99496.96
2017-11-12T07:17:17.835Z,99487.09
2017-11-12T07:18:24.326Z,99492.20
2017-11-12T07:19:30.589Z,99489.94
2017-11-12T07:20:37.446Z,99481.70
2017-11-12T07:21:45.080Z,99487.23
2017-11-12T07:22:50.574Z,99484.26
2017-11-12T07:23:56.669Z,99488.05
2017-11-12T07:25:03.327Z,99494.49
2017-11-12T07:26:09.418Z,99490.55
2017-11-12T07:27:15.555Z,99486.04
2017-11-12T07:28:21.818Z,99482.94
2017-11-12T07:29:29.962Z,99478.08
2017-11-12T07:30:36.080Z,99475.00
2017-11-12T07:31:42.650Z,99472.85
2017-11-12T07:32:49.031Z,99475.13
2017-11-12T07:33:55.168Z,99480.39
2017-11-12T07:35:03.621Z,99475.56
2017-11-12T07:36:10.099Z,99481.31
2017-11-12T07:37:18.330Z,99473.06
2017-11-12T07:38:24.580Z,99475.05
2017-11-12T07:39:30.822Z,99471.65
2017-11-12T07:40:37.473Z,99472.31
2017-11-12T07:41:43.675Z,99475.75
2017-11-12T07:42:49.603Z,99477.49
2017-11-12T07:43:56.020Z,99474.35
2017-11-12T07:45:02.282Z,99473.69
2017-11-12T07:46:08.540Z,99473.50
2017-11-12T07:47:14.722Z,99469.16
2017-11-12T07:48:21.031Z,99472.05
2017-11-12T07:49:27.244Z,99472.96
2017-11-12T07:50:33.459Z,99467.27
2017-11-12T07:51:39.945Z,99458.55
2017-11-12T07:52:46.283Z,99464.58
2017-11-12T07:53:52.579Z,99461.02
2017-11-12T07:55:00.515Z,99459.16
2017-11-12T07:56:06.588Z,99460.56
2017-11-12T07:57:12.675Z,99461.44
2017-11-12T07:58:18.876Z,99457.58
2017-11-12T07:59:25.936Z,99449.78
2017-11-12T08:00:32.662Z,99448.74
2017-11-12T08:01:38.796Z,99453.14
2017-11-12T08:02:44.802Z,99446.73
2017-11-12T08:03:50.951Z,99446.38
2017-11-12T08:04:57.856Z,99448.12
2017-11-12T08:06:04.758Z,99450.19
2017-11-12T08:07:10.903Z,99446.27
2017-11-12T08:08:28.105Z,99444.95
2017-11-12T08:09:34.602Z,99445.66
2017-11-12T08:10:40.808Z,99443.55
2017-11-12T08:11:47.163Z,99438.27
2017-11-12T08:12:53.116Z,99435.15
2017-11-12T08:13:59.364Z,99433.85
2017-11-12T08:15:10.680Z,99429.02
2017-11-12T08:16:17.023Z,99424.19
2017-11-12T08:17:23.126Z,99424.84
2017-11-12T08:18:29.310Z,99426.52
2017-11-12T08:19:35.464Z,99417.16
2017-11-12T08:20:41.675Z,99412.97
2017-11-12T08:21:47.936Z,99405.66
2017-11-12T08:22:54.107Z,99408.13
2017-11-12T08:24:00.649Z,99413.38
2017-11-12T08:25:06.751Z,99410.28
2017-11-12T08:26:12.956Z,99404.48
2017-11-12T08:27:19.151Z,99406.05
2017-11-12T08:28:24.886Z,99403.50
2017-11-12T08:29:31.227Z,99394.83
2017-11-12T08:30:36.741Z,99396.95
2017-11-12T08:31:43.226Z,99391.37
2017-11-12T08:32:49.483Z,99389.15
2017-11-12T08:33:56.004Z,99382.19
2017-11-12T08:35:01.764Z,99382.83
2017-11-12T08:36:11.710Z,99381.33
2017-11-12T08:37:18.056Z,99374.15
2017-11-12T08:38:24.226Z,99373.17
2017-11-12T08:39:29.783Z,99372.03
2017-11-12T08:40:35.534Z,99372.23
2017-11-12T08:41:41.400Z,99370.15
2017-11-12T08:42:47.453Z,99365.66
2017-11-12T08:43:53.167Z,99365.16
2017-11-12T08:44:59.206Z,99356.75
2017-11-12T08:46:04.338Z,99362.23
2017-11-12T08:47:09.992Z,99366.44
2017-11-12T08:48:15.855Z,99362.27
2017-11-12T08:49:22.019Z,99363.88
2017-11-12T08:50:28.416Z,99372.53
2017-11-12T08:51:33.664Z,99365.81
2017-11-12T08:52:39.390Z,99370.28
2017-11-12T08:53:45.299Z,99367.73
2017-11-12T08:54:51.050Z,99369.43
2017-11-12T08:55:57.789Z,99370.19
2017-11-12T08:57:04.316Z,99358.29
2017-11-12T08:58:10.349Z,99356.34
2017-11-12T08:59:16.107Z,99347.19
2017-11-12T09:00:24.708Z,99348.51
2017-11-12T09:01:29.841Z,99346.23
2017-11-12T09:02:36.543Z,99348.56
2017-11-12T09:03:42.310Z,99356.22
2017-11-12T09:04:48.053Z,99349.06
2017-11-12T09:05:53.730Z,99351.55
2017-11-12T09:06:59.750Z,99346.20
2017-11-12T09:08:05.794Z,99348.41
2017-11-12T09:09:11.877Z,99338.53
2017-11-12T09:10:18.032Z,99340.35
2017-11-12T09:11:24.120Z,99343.20
2017-11-12T09:12:30.274Z,99331.15
2017-11-12T09:13:36.344Z,99334.52
2017-11-12T09:14:42.092Z,99338.58
2017-11-12T09:15:47.808Z,99335.77
2017-11-12T09:17:01.271Z,99335.39
2017-11-12T09:18:12.506Z,99341.91
2017-11-12T09:19:18.569Z,99332.69
2017-11-12T09:20:25.049Z,99333.50
2017-11-12T09:21:31.161Z,99335.80
2017-11-12T09:22:37.879Z,99337.83
2017-11-12T09:23:44.322Z,99337.32
2017-11-12T09:24:50.416Z,99339.90
2017-11-12T09:25:56.467Z,99342.23
2017-11-12T09:27:02.534Z,99346.73
2017-11-12T09:28:08.197Z,99340.45
2017-11-12T09:29:14.250Z,99344.90
2017-11-12T09:30:20.319Z,99346.42
2017-11-12T09:31:26.366Z,99346.32
2017-11-12T09:32:32.064Z,99345.98
2017-11-12T09:33:38.098Z,99350.81
2017-11-12T09:34:44.278Z,99349.04
2017-11-12T09:35:51.030Z,99348.30
2017-11-12T09:36:57.085Z,99351.52
2017-11-12T09:38:02.787Z,99350.27
2017-11-12T09:39:08.859Z,99346.28
2017-11-12T09:40:14.959Z,99347.42
2017-11-12T09:41:21.063Z,99344.13
2017-11-12T09:42:27.202Z,99341.16
2017-11-12T09:43:36.232Z,99343.41
2017-11-12T09:44:42.331Z,99347.14
2017-11-12T09:45:48.400Z,99333.55
2017-11-12T09:46:54.479Z,99332.86
2017-11-12T09:48:00.533Z,99332.75
2017-11-12T09:49:06.600Z,99331.21
2017-11-12T09:50:12.693Z,99330.11
2017-11-12T09:51:18.763Z,99324.80
2017-11-12T09:52:24.836Z,99325.51
2017-11-12T09:53:30.895Z,99322.29
2017-11-12T09:54:36.999Z,99321.70
2017-11-12T09:55:43.079Z,99316.30
2017-11-12T09:56:49.200Z,99310.34
2017-11-12T09:57:55.325Z,99315.39
2017-11-12T09:59:01.422Z,99302.67
2017-11-12T10:00:06.828Z,99307.25
2017-11-12T10:01:12.759Z,99302.25
2017-11-12T10:02:19.799Z,99297.52
2017-11-12T10:03:25.928Z,99293.75
2017-11-12T10:04:32.036Z,99290.63
2017-11-12T10:05:38.232Z,99279.19
2017-11-12T10:06:44.351Z,99279.78
2017-11-12T10:07:51.323Z,99276.98
2017-11-12T10:08:57.430Z,99278.89
2017-11-12T10:10:03.547Z,99270.34
2017-11-12T10:11:09.652Z,99263.60
2017-11-12T10:12:15.795Z,99260.88
2017-11-12T10:13:22.059Z,99261.42
2017-11-12T10:14:28.175Z,99254.81
2017-11-12T10:15:34.275Z,99261.16
2017-11-12T10:16:43.183Z,99259.38
2017-11-12T10:17:49.285Z,99257.62
2017-11-12T10:18:55.416Z,99258.41
2017-11-12T10:20:01.571Z,99252.44
2017-11-12T10:21:07.674Z,99255.58
2017-11-12T10:22:13.764Z,99254.56
2017-11-12T10:23:19.689Z,99250.08
2017-11-12T10:24:25.804Z,99250.80
2017-11-12T10:25:32.004Z,99246.20
2017-11-12T10:26:38.103Z,99245.47
2017-11-12T10:27:44.226Z,99250.62
2017-11-12T10:28:50.326Z,99249.80
2017-11-12T10:29:56.425Z,99245.04
2017-11-12T10:31:02.684Z,99245.07
2017-11-12T10:32:08.782Z,99236.91
2017-11-12T10:33:14.549Z,99237.36
2017-11-12T10:34:20.663Z,99225.57
2017-11-12T10:35:26.777Z,99229.66
2017-11-12T10:36:32.896Z,99228.66
2017-11-12T10:37:39.021Z,99228.84
2017-11-12T10:38:45.117Z,99231.02
2017-11-12T10:39:51.218Z,99228.70
2017-11-12T10:40:57.330Z,99224.48
2017-11-12T10:42:03.253Z,99223.97
2017-11-12T10:43:09.374Z,99226.43
2017-11-12T10:44:15.452Z,99222.50
2017-11-12T10:45:21.524Z,99225.81
2017-11-12T10:46:30.597Z,99225.16
2017-11-12T10:47:38.510Z,99218.92
2017-11-12T10:48:44.578Z,99223.34
2017-11-12T10:49:51.510Z,99223.41
2017-11-12T10:50:57.643Z,99218.62
2017-11-12T10:52:03.783Z,99221.65
2017-11-12T10:53:09.905Z,99214.96
2017-11-12T10:54:15.690Z,99211.62
2017-11-12T10:55:22.075Z,99212.84
2017-11-12T10:56:29.894Z,99214.83
2017-11-12T10:57:39.847Z,99207.45
2017-11-12T10:58:46.085Z,99198.09
2017-11-12T10:59:52.171Z,99199.78
2017-11-12T11:00:58.334Z,99202.90
2017-11-12T11:02:04.451Z,99197.46
2017-11-12T11:03:10.584Z,99194.48
2017-11-12T11:04:16.718Z,99195.31
2017-11-12T11:05:22.815Z,99192.05
2017-11-12T11:06:29.000Z,99197.34
2017-11-12T11:07:35.133Z,99194.86
2017-11-12T11:08:41.043Z,99194.57
2017-11-12T11:09:47.155Z,99191.67
2017-11-12T11:10:53.290Z,99197.88
2017-11-12T11:11:59.459Z,99195.55
2017-11-12T11:13:05.591Z,99198.16
2017-11-12T11:14:11.705Z,99200.06
2017-11-12T11:15:17.839Z,99199.23
2017-11-12T11:16:23.991Z,99193.58
2017-11-12T11:17:33.775Z,99189.64
2017-11-12T11:18:39.888Z,99191.70
2017-11-12T11:19:46.047Z,99185.30
2017-11-12T11:20:53.111Z,99184.50
2017-11-12T11:21:59.225Z,99183.20
2017-11-12T11:23:05.025Z,99180.65
2017-11-12T11:24:11.113Z,99171.05
2017-11-12T11:25:17.233Z,99177.19
2017-11-12T11:26:23.380Z,99170.22
2017-11-12T11:27:29.589Z,99174.22
2017-11-12T11:28:36.639Z,99170.35
2017-11-12T11:29:43.060Z,99170.23
2017-11-12T11:30:49.189Z,99164.51
2017-11-12T11:31:55.321Z,99161.28
2017-11-12T11:33:01.473Z,99164.04
2017-11-12T11:34:07.837Z,99151.53
2017-11-12T11:35:13.949Z,99159.17
2017-11-12T11:36:20.101Z,99155.58
2017-11-12T11:37:26.241Z,99151.55
2017-11-12T11:38:32.351Z,99146.32
2017-11-12T11:39:38.487Z,99142.81
2017-11-12T11:40:44.666Z,99141.59
2017-11-12T11:41:50.792Z,99149.38
2017-11-12T11:42:56.573Z,99139.37
2017-11-12T11:44:02.754Z,99140.82
2017-11-12T11:45:13.769Z,99127.98
2017-11-12T11:46:19.915Z,99126.81
2017-11-12T11:47:26.066Z,99126.64
2017-11-12T11:48:32.198Z,99128.91
2017-11-12T11:49:38.326Z,99124.40
2017-11-12T11:50:44.464Z,99120.38
2017-11-12T11:51:50.575Z,99110.95
2017-11-12T11:52:56.699Z,99116.17
2017-11-12T11:54:03.312Z,99108.44
2017-11-12T11:55:09.045Z,99107.14
2017-11-12T11:56:14.825Z,99090.83
2017-11-12T11:57:20.990Z,99097.74
2017-11-12T11:58:27.115Z,99090.11
2017-11-12T11:59:33.386Z,99084.50
2017-11-12T12:00:38.787Z,99070.11
2017-11-12T12:01:44.763Z,99068.73
2017-11-12T12:02:50.905Z,99055.23
2017-11-12T12:03:56.665Z,99051.50
2017-11-12T12:05:02.782Z,99045.61
2017-11-12T12:06:08.918Z,99036.55
2017-11-12T12:07:15.287Z,99023.20
2017-11-12T12:08:21.438Z,99025.78
2017-11-12T12:09:28.311Z,99008.30
2017-11-12T12:10:35.342Z,99002.75
2017-11-12T12:11:41.517Z,98985.73
2017-11-12T12:12:47.643Z,98976.29
2017-11-12T12:13:53.779Z,98961.91
2017-11-12T12:14:59.874Z,98958.36
2017-11-12T12:16:06.006Z,98946.70
2017-11-12T12:17:12.171Z,98935.34
2017-11-12T12:18:18.326Z,98922.25
2017-11-12T12:19:24.747Z,98911.67
2017-11-12T12:20:30.883Z,98901.89
2017-11-12T12:21:37.053Z,98890.84
2017-11-12T12:22:43.176Z,98897.65
2017-11-12T12:23:49.324Z,98895.50
2017-11-12T12:24:55.473Z,98912.63
2017-11-12T12:26:01.643Z,98918.41
2017-11-12T12:27:07.759Z,98935.09
2017-11-12T12:28:14.536Z,98949.98
2017-11-12T12:29:21.288Z,98962.48
2017-11-12T12:30:27.426Z,98970.89
2017-11-12T12:31:33.591Z,98964.97
2017-11-12T12:32:39.720Z,98966.19
2017-11-12T12:33:45.871Z,98969.69
2017-11-12T12:34:51.800Z,98972.27
2017-11-12T12:35:57.930Z,98980.77
2017-11-12T12:37:04.076Z,98994.41
2017-11-12T12:38:11.292Z,99000.59
2017-11-12T12:39:17.243Z,98999.31
2017-11-12T12:40:23.357Z,99009.31
2017-11-12T12:41:29.500Z,99006.28
2017-11-12T12:42:35.611Z,99006.78
2017-11-12T12:43:41.762Z,99000.86
2017-11-12T12:44:48.176Z,98998.42
2017-11-12T12:45:54.158Z,98994.31
2017-11-12T12:47:00.277Z,98991.05
2017-11-12T12:48:06.401Z,98992.45
2017-11-12T12:49:12.337Z,98999.67
2017-11-12T12:50:18.440Z,98992.88
2017-11-12T12:51:24.564Z,98988.02
2017-11-12T12:52:30.798Z,98986.95
2017-11-12T12:53:36.934Z,98980.98
2017-11-12T12:54:43.045Z,98987.20
2017-11-12T12:55:49.185Z,98971.75
2017-11-12T12:56:55.326Z,98967.22
2017-11-12T12:58:01.409Z,98965.68
2017-11-12T12:59:07.515Z,98963.81
2017-11-12T13:00:13.692Z,98957.42
2017-11-12T13:01:19.861Z,98952.81